Round Rock, Texas
Current Conditions -  °F | °C
As of 2:15 PM on Sunday 23 Nov 2014 (Local Time) from KEDC Reporting Station
Clear Clear  
Wind Chill: 27°   Ceiling: Unl
Heat Index: 27°   Visibility: 10mi
Dew Point:   Wind: 16mph
Humidity: 24%   Direction: 250°WSW
Pressure: 29.52"   Gusts: 24mph
Location:  30.51°N, 97.68°W
Report Text: KEDC 232015Z AUTO 25014G21KT 10SM CLR 27/05 A2952 RMK AO2
Loading
Personal Weather Stations






























Interactive Weather Map New forecast layout! Learn more

10-Day Weather Forecast

Advertisements
Track Severe Weather on mobile